Time;durP1;ratioP1;P1;durP2;ratioP2;P2;SDS_P1;SDS_P2;PMS_P1;PMS_P2;Temp;Humidity;BMP_temperature;BMP_pressure;BME280_temperature;BME280_humidity;BME280_pressure;Samples;Min_cycle;Max_cycle;Signal;HPM_P1;HPM_P2
2023/12/05 00:00:43;;;;;;;22.60;11.82;;;0.50;99.90;;;;;;5055487;28;20040;-62
2023/12/05 00:03:08;;;;;;;21.80;12.60;;;0.40;99.90;;;;;;5064289;28;20059;-62
2023/12/05 00:05:34;;;;;;;19.45;11.52;;;0.40;99.90;;;;;;5055530;28;20520;-62
2023/12/05 00:08:00;;;;;;;22.83;12.15;;;0.40;99.90;;;;;;5043550;28;20045;-63
2023/12/05 00:10:25;;;;;;;20.00;11.13;;;0.40;99.90;;;;;;5050891;28;20509;-62
2023/12/05 00:12:51;;;;;;;21.20;12.18;;;0.40;99.90;;;;;;5051161;28;20056;-62
2023/12/05 00:15:17;;;;;;;23.73;12.73;;;0.40;99.90;;;;;;5057187;28;20056;-62
2023/12/05 00:17:42;;;;;;;20.60;12.27;;;0.40;99.90;;;;;;5064318;28;20461;-63
2023/12/05 00:20:09;;;;;;;23.77;13.57;;;0.40;99.90;;;;;;5065571;28;20139;-62
2023/12/05 00:22:36;;;;;;;24.40;13.43;;;0.40;99.90;;;;;;5064282;28;20036;-63
2023/12/05 00:25:02;;;;;;;23.13;12.85;;;0.40;99.90;;;;;;5064587;28;20848;-63
2023/12/05 00:27:28;;;;;;;22.65;12.77;;;0.40;99.90;;;;;;5064212;28;20135;-66
2023/12/05 00:29:54;;;;;;;21.00;12.85;;;0.40;99.90;;;;;;5065087;28;20684;-62
2023/12/05 00:32:20;;;;;;;24.02;12.93;;;0.40;99.90;;;;;;5057527;28;20126;-63
2023/12/05 00:34:46;;;;;;;24.38;12.90;;;0.40;99.90;;;;;;5062433;28;20056;-62
2023/12/05 00:37:12;;;;;;;22.95;13.18;;;0.40;99.90;;;;;;5063644;28;20413;-63
2023/12/05 00:39:38;;;;;;;23.35;13.57;;;0.40;99.90;;;;;;5056662;28;20037;-63
2023/12/05 00:42:04;;;;;;;22.48;13.63;;;0.40;99.90;;;;;;5057322;28;20127;-63
2023/12/05 00:44:29;;;;;;;23.77;13.75;;;0.30;99.90;;;;;;5051852;28;20357;-63
2023/12/05 00:46:55;;;;;;;24.38;14.15;;;0.40;99.90;;;;;;5046842;28;20153;-63
2023/12/05 00:49:21;;;;;;;25.08;13.70;;;0.30;99.90;;;;;;5075129;28;20052;-63
2023/12/05 00:51:47;;;;;;;25.63;15.35;;;-0.10;99.90;;;;;;5062399;28;20041;-63
2023/12/05 00:54:12;;;;;;;25.20;15.30;;;0.40;99.90;;;;;;5053529;28;20051;-63
2023/12/05 00:56:38;;;;;;;25.10;15.00;;;0.30;99.90;;;;;;5058252;28;20496;-63
2023/12/05 00:59:04;;;;;;;25.42;15.48;;;0.30;99.90;;;;;;5059490;28;20049;-66
2023/12/05 01:01:30;;;;;;;25.65;14.93;;;0.30;99.90;;;;;;5057787;28;20037;-62
2023/12/05 01:03:56;;;;;;;29.20;15.65;;;0.30;99.90;;;;;;5058215;28;20823;-63
2023/12/05 01:06:23;;;;;;;25.05;14.38;;;0.30;99.90;;;;;;5056689;28;20561;-63
2023/12/05 01:08:49;;;;;;;25.23;15.15;;;0.30;99.90;;;;;;5056191;28;20040;-62
2023/12/05 01:11:16;;;;;;;26.20;15.00;;;0.30;99.90;;;;;;5051507;28;20083;-62
2023/12/05 01:13:43;;;;;;;26.13;13.90;;;0.30;99.90;;;;;;5061400;28;20818;-62
2023/12/05 01:16:09;;;;;;;24.33;14.10;;;0.20;99.90;;;;;;5049745;28;20182;-62
2023/12/05 01:18:36;;;;;;;27.17;13.23;;;0.20;99.90;;;;;;5060688;28;20036;-62
2023/12/05 01:21:02;;;;;;;26.77;13.90;;;0.20;99.90;;;;;;5059216;28;20523;-62
2023/12/05 01:23:27;;;;;;;24.65;13.82;;;0.20;99.90;;;;;;5057083;28;20048;-62
2023/12/05 01:25:53;;;;;;;24.52;13.65;;;0.20;99.90;;;;;;5075492;28;20036;-62
2023/12/05 01:28:19;;;;;;;27.13;14.32;;;0.20;99.90;;;;;;5061221;28;20052;-63
2023/12/05 01:30:44;;;;;;;27.23;15.60;;;0.20;99.90;;;;;;5062648;28;20045;-62
2023/12/05 01:33:10;;;;;;;25.00;13.85;;;0.20;99.90;;;;;;5057617;28;20260;-62
2023/12/05 01:35:36;;;;;;;25.70;15.15;;;0.20;99.90;;;;;;5035600;28;20114;-61
2023/12/05 01:38:02;;;;;;;26.33;14.15;;;0.50;99.90;;;;;;5063411;28;20080;-62
2023/12/05 01:40:27;;;;;;;24.33;13.00;;;0.20;99.90;;;;;;5064429;28;20052;-62
2023/12/05 01:42:53;;;;;;;26.25;15.02;;;0.20;99.90;;;;;;5054094;28;20130;-62
2023/12/05 01:45:19;;;;;;;25.90;15.55;;;0.20;99.90;;;;;;5046968;28;20102;-62
2023/12/05 01:47:45;;;;;;;27.00;15.40;;;0.20;99.90;;;;;;5060191;28;20404;-62
2023/12/05 01:50:25;;;;;;;24.95;13.40;;;0.10;99.90;;;;;;5046221;28;20126;-62
2023/12/05 01:52:53;;;;;;;27.33;14.55;;;0.10;99.90;;;;;;5054436;28;20051;-63
2023/12/05 01:55:21;;;;;;;26.40;15.30;;;0.10;99.90;;;;;;5051736;28;20171;-63
2023/12/05 01:57:47;;;;;;;29.02;16.13;;;0.10;99.90;;;;;;5063650;28;20060;-62
2023/12/05 02:00:17;;;;;;;32.03;15.05;;;0.10;99.90;;;;;;5056538;28;20064;-62
2023/12/05 02:02:43;;;;;;;31.75;16.15;;;0.10;99.90;;;;;;5062296;28;20048;-62
2023/12/05 02:05:10;;;;;;;28.17;15.73;;;0.20;99.90;;;;;;5059058;28;20040;-63
2023/12/05 02:07:36;;;;;;;27.35;14.93;;;0.10;99.90;;;;;;5065528;28;20056;-62
2023/12/05 02:10:04;;;;;;;27.15;14.60;;;0.10;99.90;;;;;;5046657;28;20045;-63
2023/12/05 02:12:30;;;;;;;26.83;14.23;;;0.10;99.90;;;;;;5034092;28;20033;-63
2023/12/05 02:14:56;;;;;;;31.48;17.13;;;0.10;99.90;;;;;;5042743;28;20053;-62
2023/12/05 02:17:34;;;;;;;27.10;15.43;;;0.10;99.90;;;;;;5050643;28;20048;-63
2023/12/05 02:20:14;;;;;;;26.92;15.20;;;0.10;99.90;;;;;;5064594;28;20045;-63
2023/12/05 02:22:42;;;;;;;27.35;15.25;;;0.10;99.90;;;;;;5063661;28;20064;-63
2023/12/05 02:25:16;;;;;;;26.58;14.77;;;0.10;99.90;;;;;;5063756;28;20067;-63
2023/12/05 02:27:42;;;;;;;29.67;16.98;;;0.10;99.90;;;;;;5067819;28;20075;-63
2023/12/05 02:30:14;;;;;;;28.92;15.65;;;0.10;99.90;;;;;;5061427;28;20060;-63
2023/12/05 02:32:40;;;;;;;27.85;15.77;;;0.10;99.90;;;;;;5054759;28;20040;-63
2023/12/05 02:35:07;;;;;;;29.38;15.65;;;0.10;99.90;;;;;;5055407;28;20045;-62
2023/12/05 02:37:56;;;;;;;32.20;16.92;;;0.10;99.90;;;;;;5044020;28;20409;-62
2023/12/05 02:40:35;;;;;;;28.52;16.58;;;1.00;99.90;;;;;;5052882;28;20049;-63
2023/12/05 02:43:07;;;;;;;31.05;16.48;;;0.00;99.90;;;;;;5054923;28;20056;-62
2023/12/05 02:45:35;;;;;;;26.35;15.75;;;0.10;99.90;;;;;;5056842;28;20045;-62
2023/12/05 02:48:02;;;;;;;26.95;15.27;;;0.00;99.90;;;;;;5033044;28;20087;-63
2023/12/05 02:50:28;;;;;;;27.48;16.20;;;0.00;99.90;;;;;;5053413;28;20462;-61
2023/12/05 02:52:53;;;;;;;29.63;16.67;;;0.00;99.90;;;;;;5047959;28;20138;-62
2023/12/05 02:55:19;;;;;;;31.20;17.13;;;0.60;99.90;;;;;;5075292;28;20053;-63
2023/12/05 02:57:45;;;;;;;29.23;16.00;;;0.00;99.90;;;;;;5048468;28;20437;-63
2023/12/05 03:00:12;;;;;;;28.40;15.00;;;0.00;99.90;;;;;;5059877;28;20044;-63
2023/12/05 03:02:37;;;;;;;27.90;16.58;;;0.00;99.90;;;;;;5059100;28;20429;-63
2023/12/05 03:05:04;;;;;;;30.73;17.30;;;0.00;99.90;;;;;;5073581;28;20048;-63
2023/12/05 03:07:29;;;;;;;29.90;16.63;;;0.00;99.90;;;;;;5059121;28;20052;-63
2023/12/05 03:09:55;;;;;;;26.40;16.02;;;0.00;99.90;;;;;;5056438;28;20044;-62
2023/12/05 03:12:21;;;;;;;31.90;18.05;;;0.00;99.90;;;;;;5065262;28;20079;-63
2023/12/05 03:14:46;;;;;;;27.63;16.15;;;-0.10;99.90;;;;;;5054574;28;20045;-63
2023/12/05 03:17:12;;;;;;;32.88;17.38;;;0.40;99.90;;;;;;5055218;28;20047;-63
2023/12/05 03:19:38;;;;;;;30.92;17.27;;;0.40;99.90;;;;;;5056838;28;20037;-63
2023/12/05 03:22:04;;;;;;;31.38;16.80;;;0.00;99.90;;;;;;5047880;28;20132;-63
2023/12/05 03:24:29;;;;;;;32.10;17.05;;;-0.10;99.90;;;;;;5060097;28;20037;-63
2023/12/05 03:26:55;;;;;;;28.50;16.40;;;0.00;99.90;;;;;;5058072;28;20173;-63
2023/12/05 03:29:21;;;;;;;29.05;17.33;;;0.00;99.90;;;;;;5054488;28;20040;-63
2023/12/05 03:31:47;;;;;;;29.40;16.88;;;0.30;99.90;;;;;;5051582;28;20106;-63
2023/12/05 03:34:13;;;;;;;28.50;16.45;;;0.00;99.90;;;;;;5058000;28;20077;-63
2023/12/05 03:36:39;;;;;;;30.70;17.65;;;0.00;99.90;;;;;;5058588;28;20073;-63
2023/12/05 03:39:05;;;;;;;27.17;16.92;;;-0.10;99.90;;;;;;5067208;28;20052;-63
2023/12/05 03:41:31;;;;;;;28.73;17.23;;;0.00;99.90;;;;;;5065118;28;20078;-63
2023/12/05 03:43:56;;;;;;;29.92;17.98;;;-0.10;99.90;;;;;;5061507;28;20061;-63
2023/12/05 03:46:22;;;;;;;30.83;16.52;;;-0.10;99.90;;;;;;5055751;28;20049;-63
2023/12/05 03:48:48;;;;;;;30.50;18.15;;;-0.10;99.90;;;;;;5060651;28;20079;-63
2023/12/05 03:51:13;;;;;;;33.65;18.20;;;-0.10;99.90;;;;;;5050705;28;20090;-64
2023/12/05 03:53:39;;;;;;;30.35;17.08;;;-0.10;99.90;;;;;;5045691;28;20068;-63
2023/12/05 03:56:05;;;;;;;33.90;18.52;;;-0.10;99.90;;;;;;5045078;28;20037;-63
2023/12/05 03:58:31;;;;;;;31.27;18.67;;;-0.10;99.90;;;;;;5047896;28;20429;-63
2023/12/05 04:00:57;;;;;;;32.10;19.10;;;-0.10;99.90;;;;;;5036181;28;20060;-63
2023/12/05 04:03:22;;;;;;;33.78;18.20;;;-0.10;99.90;;;;;;5045288;28;20131;-63
2023/12/05 04:05:48;;;;;;;30.77;18.13;;;-0.10;99.90;;;;;;5045812;28;20060;-64
2023/12/05 04:08:14;;;;;;;33.00;18.83;;;-0.10;99.90;;;;;;5055048;28;20056;-65
2023/12/05 04:10:39;;;;;;;32.25;18.65;;;-0.10;99.90;;;;;;5046927;28;20098;-64
2023/12/05 04:13:05;;;;;;;32.67;18.30;;;-0.10;99.90;;;;;;5044797;28;20040;-64
2023/12/05 04:15:31;;;;;;;30.75;18.10;;;-0.10;99.90;;;;;;5030738;28;20114;-65
2023/12/05 04:17:57;;;;;;;34.83;19.38;;;-0.10;99.90;;;;;;5055352;28;20055;-65
2023/12/05 04:20:22;;;;;;;35.35;18.42;;;-0.10;99.90;;;;;;5056277;28;20048;-65
2023/12/05 04:22:48;;;;;;;33.65;18.30;;;0.80;99.90;;;;;;5048011;28;20040;-65
2023/12/05 04:25:16;;;;;;;33.30;18.23;;;-0.10;99.90;;;;;;5039487;28;20057;-65
2023/12/05 04:27:41;;;;;;;34.22;18.75;;;-0.20;99.90;;;;;;5043709;28;20067;-64
2023/12/05 04:30:07;;;;;;;36.67;19.98;;;-0.10;99.90;;;;;;5054616;28;20182;-64
2023/12/05 04:32:33;;;;;;;35.15;17.92;;;-0.10;99.90;;;;;;5043488;28;20498;-63
2023/12/05 04:34:59;;;;;;;32.90;19.17;;;-0.20;99.90;;;;;;5063300;28;20055;-63
2023/12/05 04:37:25;;;;;;;36.17;19.30;;;0.80;99.90;;;;;;5053400;28;20798;-62
2023/12/05 04:39:51;;;;;;;36.80;18.75;;;-0.20;99.90;;;;;;5063197;28;20040;-63
2023/12/05 04:42:17;;;;;;;34.42;18.20;;;-0.20;99.90;;;;;;5061523;28;20056;-63
2023/12/05 04:44:42;;;;;;;30.30;18.92;;;0.10;99.90;;;;;;5052308;28;20584;-63
2023/12/05 04:47:09;;;;;;;33.72;18.65;;;-0.20;99.90;;;;;;5070266;28;20048;-64
2023/12/05 04:49:34;;;;;;;36.05;19.30;;;-0.20;99.90;;;;;;5053661;28;20048;-63
2023/12/05 04:52:00;;;;;;;34.05;18.67;;;-0.20;99.90;;;;;;5054573;28;20056;-63
2023/12/05 04:54:26;;;;;;;32.72;18.27;;;-0.20;99.90;;;;;;5051087;28;20262;-63
2023/12/05 04:56:52;;;;;;;28.98;17.73;;;-0.20;99.90;;;;;;5064525;28;20056;-63
2023/12/05 04:59:17;;;;;;;34.10;18.83;;;-0.20;99.90;;;;;;5062320;28;20496;-63
2023/12/05 05:01:43;;;;;;;35.40;19.20;;;-0.20;99.90;;;;;;5064128;28;20044;-63
2023/12/05 05:04:09;;;;;;;32.72;18.63;;;-0.20;99.90;;;;;;5043159;28;20102;-62
2023/12/05 05:06:35;;;;;;;31.90;18.30;;;-0.20;99.90;;;;;;5065318;28;20118;-63
2023/12/05 05:09:00;;;;;;;35.05;19.83;;;-0.20;99.90;;;;;;5064781;28;20048;-63
2023/12/05 05:11:26;;;;;;;36.33;19.52;;;-0.20;99.90;;;;;;5059106;28;20048;-63
2023/12/05 05:13:52;;;;;;;31.35;17.08;;;-0.20;99.90;;;;;;5045976;28;20075;-63
2023/12/05 05:16:18;;;;;;;32.50;19.15;;;-0.20;99.90;;;;;;5050452;28;20040;-63
2023/12/05 05:18:44;;;;;;;30.35;18.08;;;-0.20;99.90;;;;;;5048954;28;21111;-63
2023/12/05 05:21:11;;;;;;;35.42;19.25;;;-0.20;99.90;;;;;;5057479;28;20135;-63
2023/12/05 05:23:38;;;;;;;35.38;18.67;;;-0.20;99.90;;;;;;5056757;28;20052;-63
2023/12/05 05:26:04;;;;;;;35.67;19.70;;;-0.20;99.90;;;;;;5035025;28;20056;-63
2023/12/05 05:28:30;;;;;;;33.60;18.73;;;-0.20;99.90;;;;;;5064433;28;20043;-64
2023/12/05 05:30:55;;;;;;;33.30;18.33;;;-0.20;99.90;;;;;;5049112;28;20049;-64
2023/12/05 05:33:22;;;;;;;31.30;17.33;;;-0.20;99.90;;;;;;5056362;28;20166;-64
2023/12/05 05:35:48;;;;;;;32.33;17.48;;;-0.20;99.90;;;;;;5042237;28;20048;-63
2023/12/05 05:38:13;;;;;;;33.40;18.65;;;-0.20;99.90;;;;;;5057809;28;20039;-63
2023/12/05 05:40:40;;;;;;;33.15;18.67;;;-0.20;99.90;;;;;;5069761;28;20090;-64
2023/12/05 05:43:06;;;;;;;31.88;19.13;;;-0.20;99.90;;;;;;5061405;28;20649;-64
2023/12/05 05:45:31;;;;;;;35.63;19.33;;;-0.20;99.90;;;;;;5049145;28;20151;-64
2023/12/05 05:47:57;;;;;;;31.35;17.42;;;0.00;99.90;;;;;;5050446;28;20078;-63
2023/12/05 05:50:23;;;;;;;32.72;18.52;;;-0.20;99.90;;;;;;5040242;28;20045;-64
2023/12/05 05:52:48;;;;;;;34.47;19.17;;;-0.20;99.90;;;;;;5058540;28;20049;-64
2023/12/05 05:55:14;;;;;;;35.97;19.40;;;-0.10;99.90;;;;;;5053770;28;20048;-64
2023/12/05 05:57:40;;;;;;;37.53;20.27;;;-0.10;99.90;;;;;;5038358;28;20041;-64
2023/12/05 06:00:06;;;;;;;34.13;19.10;;;-0.10;99.90;;;;;;5044897;28;20044;-64
2023/12/05 06:02:32;;;;;;;33.72;18.25;;;-0.10;99.90;;;;;;5052641;28;20613;-64
2023/12/05 06:04:57;;;;;;;38.47;19.50;;;-0.10;99.90;;;;;;5061403;28;20050;-63
2023/12/05 06:07:23;;;;;;;34.30;19.42;;;-0.10;99.90;;;;;;5060212;28;20055;-64
2023/12/05 06:09:50;;;;;;;35.13;18.30;;;-0.10;99.90;;;;;;5052078;28;20047;-64
2023/12/05 06:12:16;;;;;;;34.53;19.35;;;-0.10;99.90;;;;;;5049365;28;20049;-64
2023/12/05 06:14:41;;;;;;;30.80;17.63;;;-0.10;99.90;;;;;;5046756;28;20045;-63
2023/12/05 06:17:07;;;;;;;34.70;19.27;;;-0.20;99.90;;;;;;5060141;28;20033;-64
2023/12/05 06:19:33;;;;;;;35.40;19.80;;;-0.10;99.90;;;;;;5052852;28;20488;-64
2023/12/05 06:21:59;;;;;;;34.78;19.55;;;-0.10;99.90;;;;;;5052040;28;20079;-64
2023/12/05 06:24:26;;;;;;;35.17;19.13;;;-0.10;99.90;;;;;;5052684;28;20044;-64
2023/12/05 06:26:52;;;;;;;34.38;18.35;;;0.70;99.90;;;;;;5063803;28;20048;-64
2023/12/05 06:29:18;;;;;;;32.92;18.17;;;-0.20;99.90;;;;;;5067359;28;20735;-64
2023/12/05 06:31:44;;;;;;;33.55;18.05;;;-0.20;99.90;;;;;;5055480;28;20079;-63
2023/12/05 06:34:10;;;;;;;32.28;17.65;;;-0.20;99.90;;;;;;5057335;28;20112;-64
2023/12/05 06:36:36;;;;;;;35.45;19.15;;;-0.20;99.90;;;;;;5044156;28;20045;-64
2023/12/05 06:39:02;;;;;;;35.45;19.80;;;0.10;99.90;;;;;;5051953;28;20135;-63
2023/12/05 06:41:28;;;;;;;33.63;18.30;;;-0.20;99.90;;;;;;5041531;28;21208;-64
2023/12/05 06:43:54;;;;;;;34.72;18.38;;;-0.20;99.90;;;;;;5045613;28;20051;-64
2023/12/05 06:46:19;;;;;;;35.78;19.40;;;-0.20;99.90;;;;;;5051928;28;20068;-63
2023/12/05 06:48:48;;;;;;;34.35;19.00;;;0.00;99.90;;;;;;5051726;28;20064;-64
2023/12/05 06:51:20;;;;;;;35.22;18.80;;;-0.20;99.90;;;;;;5051684;28;20056;-62
2023/12/05 06:53:46;;;;;;;33.10;19.13;;;-0.20;99.90;;;;;;5036857;28;20049;-63
2023/12/05 06:56:14;;;;;;;38.28;20.10;;;-0.20;99.90;;;;;;5036649;28;20041;-62
2023/12/05 06:58:39;;;;;;;35.92;18.65;;;-0.20;99.90;;;;;;5050893;28;20111;-63
2023/12/05 07:01:06;;;;;;;34.05;18.42;;;-0.20;99.90;;;;;;5049031;28;20590;-63
2023/12/05 07:03:33;;;;;;;35.00;18.45;;;-0.20;99.90;;;;;;5047383;28;20051;-63
2023/12/05 07:05:58;;;;;;;35.80;18.77;;;-0.20;99.90;;;;;;5025702;28;20049;-63
2023/12/05 07:08:24;;;;;;;36.45;18.58;;;-0.20;99.90;;;;;;5026881;28;20103;-63
2023/12/05 07:10:50;;;;;;;34.97;18.60;;;-0.20;99.90;;;;;;5047545;28;20041;-62
2023/12/05 07:13:16;;;;;;;38.38;19.77;;;-0.20;99.90;;;;;;5052255;28;20049;-62
2023/12/05 07:15:42;;;;;;;36.20;19.02;;;-0.20;99.90;;;;;;5052970;28;20988;-62
2023/12/05 07:18:08;;;;;;;38.80;20.15;;;-0.20;99.90;;;;;;5047778;28;20059;-64
2023/12/05 07:20:34;;;;;;;35.78;19.15;;;-0.20;99.90;;;;;;5034301;28;20036;-63
2023/12/05 07:23:00;;;;;;;35.45;18.85;;;-0.20;99.90;;;;;;5056068;28;20048;-64
2023/12/05 07:25:26;;;;;;;37.10;20.40;;;-0.20;99.90;;;;;;5068766;28;20044;-63
2023/12/05 07:27:51;;;;;;;35.03;19.23;;;-0.20;99.90;;;;;;5053354;28;20417;-63
2023/12/05 07:30:17;;;;;;;39.47;19.40;;;-0.20;99.90;;;;;;5060856;28;20040;-64
2023/12/05 07:32:43;;;;;;;35.35;19.17;;;0.00;99.90;;;;;;5055124;28;20250;-63
2023/12/05 07:35:09;;;;;;;37.95;19.40;;;-0.20;99.90;;;;;;5070804;28;20040;-63
2023/12/05 07:37:34;;;;;;;34.70;19.65;;;-0.20;99.90;;;;;;5047407;28;20044;-64
2023/12/05 07:40:00;;;;;;;36.28;19.65;;;-0.20;99.90;;;;;;5056899;28;20068;-63
2023/12/05 07:42:26;;;;;;;37.08;18.92;;;-0.20;99.90;;;;;;5054328;28;20503;-63
2023/12/05 07:44:52;;;;;;;38.17;19.95;;;-0.20;99.90;;;;;;5065098;28;20045;-63
2023/12/05 07:47:18;;;;;;;35.78;19.50;;;-0.20;99.90;;;;;;5064231;28;20489;-64
2023/12/05 07:49:46;;;;;;;37.67;19.85;;;-0.20;99.90;;;;;;5048008;28;20041;-63
2023/12/05 07:52:12;;;;;;;42.20;21.17;;;-0.20;99.90;;;;;;5070869;28;20485;-63
2023/12/05 07:54:38;;;;;;;43.05;22.38;;;-0.20;99.90;;;;;;5061310;28;20051;-63
2023/12/05 07:57:04;;;;;;;39.00;21.52;;;-0.20;99.90;;;;;;5053826;28;20043;-63
2023/12/05 07:59:30;;;;;;;41.05;21.85;;;-0.20;99.90;;;;;;5063951;28;20040;-63
2023/12/05 08:01:56;;;;;;;37.55;19.52;;;-0.20;99.90;;;;;;5059058;28;20074;-63
2023/12/05 08:04:21;;;;;;;39.90;20.38;;;-0.20;99.90;;;;;;5065948;28;20052;-63
2023/12/05 08:06:50;;;;;;;40.22;20.33;;;-0.20;99.90;;;;;;5064411;28;20045;-63
2023/12/05 08:09:16;;;;;;;40.85;21.50;;;-0.20;99.90;;;;;;5062413;28;20045;-63
2023/12/05 08:11:42;;;;;;;40.55;21.73;;;0.00;99.90;;;;;;5054216;28;20048;-63
2023/12/05 08:14:08;;;;;;;39.90;21.20;;;-0.20;99.90;;;;;;5052930;28;20114;-64
2023/12/05 08:16:34;;;;;;;38.25;20.58;;;-0.20;99.90;;;;;;5049652;28;20048;-64
2023/12/05 08:18:59;;;;;;;42.63;21.05;;;-0.10;99.90;;;;;;5052555;28;20189;-62
2023/12/05 08:21:25;;;;;;;41.22;21.67;;;-0.10;99.90;;;;;;5048053;28;20756;-63
2023/12/05 08:23:52;;;;;;;45.10;23.10;;;0.60;99.90;;;;;;5055176;28;20067;-63
2023/12/05 08:26:17;;;;;;;44.00;22.58;;;-0.10;99.90;;;;;;5052602;28;20425;-63
2023/12/05 08:28:43;;;;;;;40.72;23.25;;;1.00;99.90;;;;;;5057954;28;20040;-64
2023/12/05 08:31:09;;;;;;;40.30;21.23;;;0.00;99.90;;;;;;5060448;28;20119;-63
2023/12/05 08:33:34;;;;;;;37.88;20.65;;;-0.10;99.90;;;;;;5054060;28;20037;-62
2023/12/05 08:36:01;;;;;;;41.55;20.55;;;-0.10;99.90;;;;;;5059669;28;20477;-62
2023/12/05 08:38:27;;;;;;;41.20;21.73;;;0.00;99.90;;;;;;5060409;28;20048;-63
2023/12/05 08:40:52;;;;;;;36.22;20.02;;;-0.10;99.90;;;;;;5053641;28;20044;-63
2023/12/05 08:43:18;;;;;;;38.13;20.83;;;-0.10;99.90;;;;;;5049295;28;20116;-64
2023/12/05 08:45:44;;;;;;;41.10;21.60;;;-0.10;99.90;;;;;;5051601;28;20509;-63
2023/12/05 08:48:10;;;;;;;39.38;20.30;;;-0.10;99.90;;;;;;5047612;28;20178;-63
2023/12/05 08:50:36;;;;;;;40.58;21.17;;;0.80;99.90;;;;;;5049181;28;20120;-63
2023/12/05 08:53:02;;;;;;;37.58;20.73;;;0.00;99.90;;;;;;5046052;28;20065;-65
2023/12/05 08:55:28;;;;;;;39.33;21.38;;;0.00;99.90;;;;;;5047679;28;20484;-64
2023/12/05 08:57:55;;;;;;;39.42;19.95;;;0.00;99.90;;;;;;5027112;28;20044;-63
2023/12/05 09:00:21;;;;;;;37.33;20.05;;;0.20;99.90;;;;;;5038977;28;20080;-65
2023/12/05 09:02:47;;;;;;;38.72;20.75;;;0.50;99.90;;;;;;5042985;28;20071;-64
2023/12/05 09:05:12;;;;;;;38.97;20.55;;;0.00;99.90;;;;;;5036803;28;20146;-64
2023/12/05 09:07:39;;;;;;;39.60;19.70;;;0.00;99.90;;;;;;5037980;28;20048;-64
2023/12/05 09:10:05;;;;;;;39.70;19.92;;;-0.10;99.90;;;;;;5024724;28;20190;-61
2023/12/05 09:12:32;;;;;;;36.58;19.55;;;0.00;99.90;;;;;;5043847;28;20785;-63
2023/12/05 09:14:58;;;;;;;34.28;19.00;;;0.00;99.90;;;;;;5045499;28;20153;-63
2023/12/05 09:17:24;;;;;;;37.60;20.20;;;0.00;99.90;;;;;;5043957;28;20135;-63
2023/12/05 09:19:50;;;;;;;35.42;20.88;;;0.00;99.90;;;;;;5040501;28;20121;-63
2023/12/05 09:22:17;;;;;;;37.53;20.83;;;0.00;99.90;;;;;;5045492;28;20048;-63
2023/12/05 09:24:43;;;;;;;36.90;19.58;;;-0.10;99.90;;;;;;5040886;28;20051;-63
2023/12/05 09:27:08;;;;;;;34.22;19.40;;;0.00;99.90;;;;;;5040484;28;20867;-63
2023/12/05 09:29:34;;;;;;;38.25;19.50;;;0.00;99.90;;;;;;5040766;28;20159;-63
2023/12/05 09:32:00;;;;;;;39.42;20.70;;;0.00;99.90;;;;;;5046045;28;20041;-64
2023/12/05 09:34:26;;;;;;;38.67;21.92;;;0.00;99.90;;;;;;5043920;28;20056;-64
2023/12/05 09:36:51;;;;;;;34.63;18.90;;;0.00;99.90;;;;;;5039595;28;20250;-64
2023/12/05 09:39:17;;;;;;;39.25;21.05;;;0.00;99.90;;;;;;5014925;28;21095;-64
2023/12/05 09:41:49;;;;;;;36.60;20.88;;;1.10;99.90;;;;;;5034513;28;20045;-64
2023/12/05 09:44:19;;;;;;;38.72;20.85;;;0.50;99.90;;;;;;5038439;28;20114;-64
2023/12/05 09:46:49;;;;;;;35.90;20.58;;;0.00;99.90;;;;;;5041114;28;20052;-64
2023/12/05 09:49:17;;;;;;;33.45;18.55;;;0.10;99.90;;;;;;5025267;28;20048;-63
2023/12/05 09:51:43;;;;;;;37.40;20.42;;;0.10;99.90;;;;;;5044756;28;20052;-64
2023/12/05 09:54:11;;;;;;;37.83;19.73;;;0.00;99.90;;;;;;5044464;28;20145;-64
2023/12/05 09:56:37;;;;;;;39.80;20.98;;;0.00;99.90;;;;;;5042841;28;20499;-63
2023/12/05 09:59:03;;;;;;;32.63;18.80;;;0.30;99.90;;;;;;5042422;28;20144;-64
2023/12/05 10:01:31;;;;;;;35.30;19.30;;;1.20;99.90;;;;;;5029090;28;20159;-63
2023/12/05 10:03:58;;;;;;;37.53;19.88;;;0.10;99.90;;;;;;5044976;28;20097;-63
2023/12/05 10:06:29;;;;;;;33.60;19.13;;;0.90;99.90;;;;;;5048890;28;20570;-65
2023/12/05 10:08:56;;;;;;;37.97;20.65;;;0.40;99.90;;;;;;5059887;28;20159;-64
2023/12/05 10:11:24;;;;;;;38.10;19.80;;;0.10;99.90;;;;;;5048072;28;20045;-63
2023/12/05 10:13:53;;;;;;;34.95;18.42;;;0.10;99.90;;;;;;5047244;28;20052;-64
2023/12/05 10:16:22;;;;;;;36.47;19.38;;;0.30;99.90;;;;;;5030552;28;20041;-64
2023/12/05 10:18:48;;;;;;;35.95;19.20;;;0.20;99.90;;;;;;5046649;28;20052;-64
2023/12/05 10:21:14;;;;;;;35.78;20.88;;;0.50;99.90;;;;;;5053461;28;20051;-64
2023/12/05 10:23:40;;;;;;;33.72;18.95;;;0.10;99.90;;;;;;5050758;28;20059;-64
2023/12/05 10:26:06;;;;;;;34.47;18.70;;;1.20;99.90;;;;;;5048185;28;20048;-63
2023/12/05 10:28:31;;;;;;;36.03;19.08;;;0.10;99.90;;;;;;5044569;28;20114;-63
2023/12/05 10:30:57;;;;;;;36.65;20.52;;;0.10;99.90;;;;;;5047785;28;20068;-64
2023/12/05 10:33:23;;;;;;;37.75;19.40;;;0.90;99.90;;;;;;5048038;28;20040;-64
2023/12/05 10:35:49;;;;;;;38.45;20.13;;;0.10;99.90;;;;;;5048250;28;20052;-65
2023/12/05 10:38:19;;;;;;;36.95;20.45;;;0.10;99.90;;;;;;5047976;28;20049;-64
2023/12/05 10:40:53;;;;;;;36.53;20.88;;;0.10;99.90;;;;;;5045853;28;20048;-63
2023/12/05 10:43:20;;;;;;;39.60;20.35;;;0.20;99.90;;;;;;5045997;28;20436;-64
2023/12/05 10:45:46;;;;;;;36.13;19.40;;;0.20;99.90;;;;;;5036834;28;20723;-64
2023/12/05 10:48:14;;;;;;;36.70;19.75;;;0.20;99.90;;;;;;5048249;28;20059;-63
2023/12/05 10:50:40;;;;;;;33.38;19.50;;;0.20;99.90;;;;;;5057627;28;20060;-63
2023/12/05 10:53:06;;;;;;;37.13;21.25;;;0.20;99.90;;;;;;5056703;28;20128;-63
2023/12/05 10:55:32;;;;;;;38.88;19.58;;;0.20;99.90;;;;;;5053956;28;20768;-63
2023/12/05 10:57:59;;;;;;;36.17;19.52;;;0.40;99.90;;;;;;5055225;28;20041;-63
2023/12/05 11:00:26;;;;;;;38.47;20.60;;;0.20;99.90;;;;;;5062436;28;20041;-64
2023/12/05 11:02:53;;;;;;;35.30;19.08;;;0.30;99.90;;;;;;5067339;28;20053;-64
2023/12/05 11:05:19;;;;;;;36.92;19.50;;;0.60;99.90;;;;;;5063054;28;20044;-66
2023/12/05 11:07:45;;;;;;;35.53;19.00;;;0.20;99.90;;;;;;5047470;28;20037;-63
2023/12/05 11:10:11;;;;;;;37.95;20.17;;;-0.80;99.90;;;;;;5045512;28;20524;-63
2023/12/05 11:12:39;;;;;;;37.85;19.90;;;0.20;99.90;;;;;;5064792;28;20107;-64
2023/12/05 11:15:07;;;;;;;41.15;21.35;;;0.20;99.90;;;;;;5072445;28;20105;-65
2023/12/05 11:17:41;;;;;;;35.95;21.08;;;0.20;99.90;;;;;;5055656;28;20036;-65
2023/12/05 11:20:30;;;;;;;36.65;19.75;;;0.20;99.90;;;;;;5046947;28;20041;-63
2023/12/05 11:23:19;;;;;;;38.92;19.77;;;0.20;99.90;;;;;;5049940;28;20246;-63
2023/12/05 11:26:11;;;;;;;39.22;19.70;;;0.20;99.90;;;;;;5052010;28;20041;-64
2023/12/05 11:28:58;;;;;;;;;;;0.20;99.90;;;;;;5052188;28;20151;-64
2023/12/05 11:31:42;;;;;;;35.35;19.58;;;0.10;99.90;;;;;;5051639;28;19935;-65
2023/12/05 11:34:32;;;;;;;39.42;19.75;;;0.20;99.90;;;;;;5056049;28;20109;-63
2023/12/05 11:37:33;;;;;;;35.75;20.10;;;0.20;99.90;;;;;;5058675;28;20103;-64
2023/12/05 11:39:59;;;;;;;37.67;19.00;;;0.20;99.90;;;;;;5064068;28;20045;-63
2023/12/05 11:42:25;;;;;;;38.22;20.17;;;0.60;99.90;;;;;;5061192;28;20489;-63
2023/12/05 11:44:50;;;;;;;38.08;19.40;;;0.10;99.90;;;;;;5058676;28;20066;-63
2023/12/05 11:47:30;;;;;;;38.22;21.17;;;0.20;99.90;;;;;;5054801;28;20059;-63
2023/12/05 11:49:56;;;;;;;37.20;20.00;;;0.20;99.90;;;;;;5058565;28;20080;-63
2023/12/05 11:52:27;;;;;;;39.10;19.90;;;0.60;99.90;;;;;;5053510;28;20115;-64
2023/12/05 11:54:53;;;;;;;39.80;20.48;;;0.20;99.90;;;;;;5060297;28;20049;-64
2023/12/05 11:57:23;;;;;;;39.13;20.35;;;0.10;99.90;;;;;;5056979;28;20043;-64
2023/12/05 11:59:55;;;;;;;35.17;19.92;;;0.10;99.90;;;;;;5060687;28;20052;-64
2023/12/05 12:02:41;;;;;;;36.80;19.75;;;0.10;99.90;;;;;;5056939;28;20039;-63
2023/12/05 12:05:09;;;;;;;40.05;20.55;;;0.10;99.90;;;;;;5058704;28;20102;-64
2023/12/05 12:07:52;;;;;;;40.10;19.30;;;0.10;99.90;;;;;;5057816;28;20511;-63
2023/12/05 12:10:18;;;;;;;39.15;20.02;;;0.10;99.90;;;;;;5061433;28;20036;-64
2023/12/05 12:12:45;;;;;;;39.47;20.75;;;0.10;99.90;;;;;;5056467;28;20387;-63
2023/12/05 12:15:13;;;;;;;40.17;20.40;;;0.10;99.90;;;;;;5059465;28;20659;-63
2023/12/05 12:17:43;;;;;;;40.78;21.38;;;0.10;99.90;;;;;;5050765;28;20124;-63
2023/12/05 12:20:16;;;;;;;41.20;21.58;;;0.10;99.90;;;;;;5043805;28;20041;-63
2023/12/05 12:22:45;;;;;;;41.05;20.95;;;0.10;99.90;;;;;;5056541;28;20051;-63
2023/12/05 12:25:11;;;;;;;37.05;20.40;;;0.00;99.90;;;;;;5058974;28;20040;-63
2023/12/05 12:27:41;;;;;;;39.70;21.25;;;0.20;99.90;;;;;;5065180;28;20114;-64
2023/12/05 12:30:15;;;;;;;41.35;22.13;;;0.10;99.90;;;;;;5056737;28;20205;-63
2023/12/05 12:32:57;;;;;;;41.25;21.27;;;0.00;99.90;;;;;;5059097;28;20048;-64